Archival Weather

Abadan

Abadan, Iran (OIAA)

Report from: Thursday, September 21, 2023 4:00 PM UTC
Current time: Saturday, March 2, 2024 9:46 AM UTC

Current weather – Weather history – Daily summaries
Weather forecast

Temperature39.0°C (102.2°F)
Heat index36.2°C (97.2°F)
Dew point3.0°C (37.4°F)
Winds 8 kts (4.1 m/s, 9.2 mph) North (350°)
Clouds Sky clear
Altimeter29.65 in.Hg (1004 mB)
Relative humidity11 %
Density altitude3,127 ft. (953 m)
Remarks Ceiling and visibility OK
Flight conditions Visual Meteorological Conditions
Raw dataOIAA 211600Z 35008KT CAVOK 39/03 Q1004
An error has occurred. This application may no longer respond until reloaded. Reload 🗙